Terminal Aerodrome Forecast
Issued by NWS

Home | Current Version | Previous Version | Text Only | Print | Product List | Glossary On
Versions: 1 2 3 4 5 6 7 8 9 10 11 12 13 14 15
000
FTUS44 KOUN 312334
TAFLAW
TAF
KLAW 312334Z 0100/0124 14008KT P6SM VCTS SCT040CB BKN150
      TEMPO 0100/0103 4SM TSRA BKN040CB BKN100
     FM010300 VRB03KT P6SM OVC035
     FM011500 07006KT P6SM SCT050 BKN150 PROB30 0115/0121 4SM -TSRA
      BKN040CB BKN100=

USA.gov is the U.S. government's official web portal to all federal, state and local government web resources and services.